createdAt,value
2022-07-26T00:01:32.043Z,19.40
2022-07-26T00:06:35.572Z,19.30
2022-07-26T00:11:38.596Z,19.30
2022-07-26T00:16:43.246Z,19.20
2022-07-26T00:21:46.650Z,19.00
2022-07-26T00:26:49.896Z,19.00
2022-07-26T00:31:54.717Z,18.90
2022-07-26T00:36:58.094Z,18.90
2022-07-26T00:42:01.397Z,18.80
2022-07-26T00:47:06.273Z,18.80
2022-07-26T00:52:11.028Z,18.70
2022-07-26T00:57:15.117Z,18.70
2022-07-26T01:02:20.273Z,18.70
2022-07-26T01:07:23.995Z,18.80
2022-07-26T01:12:27.291Z,18.90
2022-07-26T01:17:31.960Z,19.00
2022-07-26T01:22:41.094Z,19.00
2022-07-26T01:27:44.846Z,19.00
2022-07-26T01:32:48.189Z,19.00
2022-07-26T01:37:53.319Z,19.00
2022-07-26T01:42:56.585Z,19.00
2022-07-26T01:48:01.390Z,19.10
2022-07-26T01:53:06.610Z,19.00
2022-07-26T01:58:09.985Z,19.00
2022-07-26T02:03:13.318Z,19.00
2022-07-26T02:08:17.965Z,19.00
2022-07-26T02:13:23.929Z,19.10
2022-07-26T02:18:28.373Z,19.10
2022-07-26T02:23:33.166Z,19.10
2022-07-26T02:28:36.479Z,19.10
2022-07-26T02:33:39.687Z,19.10
2022-07-26T02:38:44.263Z,19.10
2022-07-26T02:43:47.490Z,19.10
2022-07-26T02:48:50.835Z,19.10
2022-07-26T02:53:55.948Z,19.10
2022-07-26T02:58:59.011Z,19.10
2022-07-26T03:04:02.045Z,19.10
2022-07-26T03:09:06.648Z,19.10
2022-07-26T03:14:10.264Z,19.00
2022-07-26T03:19:13.699Z,19.00
2022-07-26T03:24:18.145Z,18.90
2022-07-26T03:29:21.226Z,19.00
2022-07-26T03:34:24.268Z,18.90
2022-07-26T03:39:28.667Z,18.90
2022-07-26T03:44:31.674Z,18.90
2022-07-26T03:49:34.816Z,18.90
2022-07-26T03:54:39.233Z,18.90
2022-07-26T03:59:42.285Z,18.90
2022-07-26T04:04:46.155Z,19.00
2022-07-26T04:09:50.890Z,19.00
2022-07-26T04:14:53.905Z,19.00
2022-07-26T04:19:57.270Z,19.00
2022-07-26T04:25:01.668Z,19.00
2022-07-26T04:30:06.664Z,19.00
2022-07-26T04:35:11.561Z,19.10
2022-07-26T04:40:21.240Z,19.10
2022-07-26T04:45:24.845Z,19.10
2022-07-26T04:50:28.869Z,19.10
2022-07-26T04:55:33.519Z,21.70
2022-07-26T05:00:56.546Z,22.70
2022-07-26T05:06:00.021Z,19.30
2022-07-26T05:11:04.746Z,19.40
2022-07-26T05:16:11.578Z,19.40
2022-07-26T05:21:15.453Z,19.40
2022-07-26T05:26:20.152Z,19.30
2022-07-26T05:31:23.598Z,19.50
2022-07-26T05:36:27.077Z,19.50
2022-07-26T05:41:31.725Z,19.70
2022-07-26T05:46:35.236Z,19.90
2022-07-26T05:51:38.595Z,19.90
2022-07-26T05:56:43.259Z,20.10
2022-07-26T06:01:46.584Z,20.30
2022-07-26T06:06:49.985Z,20.20
2022-07-26T06:11:54.931Z,20.30
2022-07-26T06:16:58.278Z,20.50
2022-07-26T06:22:01.863Z,20.60
2022-07-26T06:27:06.720Z,20.80
2022-07-26T06:32:10.218Z,21.20
2022-07-26T06:37:14.019Z,21.60
2022-07-26T06:42:18.730Z,21.70
2022-07-26T06:47:22.577Z,21.50
2022-07-26T06:52:25.924Z,21.60
2022-07-26T06:57:30.701Z,21.40
2022-07-26T07:02:34.030Z,21.50
2022-07-26T07:07:37.612Z,21.70
2022-07-26T07:12:44.879Z,22.30
2022-07-26T07:17:48.459Z,22.90
2022-07-26T07:22:51.789Z,23.70
2022-07-26T07:27:56.435Z,24.10
2022-07-26T07:32:59.693Z,24.30
2022-07-26T07:38:03.060Z,23.50
2022-07-26T07:43:07.745Z,24.40
2022-07-26T07:48:11.132Z,23.80
2022-07-26T07:53:14.401Z,23.90
2022-07-26T07:58:21.462Z,24.00
2022-07-26T08:03:24.766Z,24.00
2022-07-26T08:08:42.542Z,24.50
2022-07-26T08:13:48.318Z,24.60
2022-07-26T08:18:57.224Z,25.00
2022-07-26T08:24:01.571Z,25.20
2022-07-26T08:29:06.216Z,25.10
2022-07-26T08:34:09.551Z,25.40
2022-07-26T08:39:12.810Z,24.40
2022-07-26T08:44:17.292Z,24.50
2022-07-26T08:49:20.651Z,24.80
2022-07-26T08:54:24.021Z,28.30
2022-07-26T08:59:30.675Z,24.70
2022-07-26T09:04:43.400Z,26.30
2022-07-26T09:10:01.299Z,26.00
2022-07-26T09:15:07.995Z,26.90
2022-07-26T09:20:14.037Z,26.40
2022-07-26T09:25:22.986Z,27.00
2022-07-26T09:30:28.453Z,26.30
2022-07-26T09:35:50.364Z,26.70
2022-07-26T09:40:55.594Z,25.70
2022-07-26T09:46:07.878Z,25.70
2022-07-26T09:51:12.268Z,24.70
2022-07-26T09:56:15.809Z,27.50
2022-07-26T10:01:20.531Z,27.80
2022-07-26T10:06:27.297Z,27.60
2022-07-26T10:12:00.837Z,26.80
2022-07-26T10:17:46.205Z,27.20
2022-07-26T10:22:50.611Z,28.50
2022-07-26T10:27:56.116Z,27.00
2022-07-26T10:33:02.825Z,27.50
2022-07-26T10:38:07.534Z,26.70
2022-07-26T10:43:39.075Z,26.00
2022-07-26T10:48:56.088Z,26.90
2022-07-26T10:54:02.884Z,29.60
2022-07-26T10:59:07.496Z,30.30
2022-07-26T11:04:20.802Z,31.80
2022-07-26T11:09:24.065Z,30.00
2022-07-26T11:14:27.665Z,27.80
2022-07-26T11:19:32.283Z,27.50
2022-07-26T11:24:41.569Z,27.60
2022-07-26T11:29:49.250Z,27.20
2022-07-26T11:35:01.540Z,26.60
2022-07-26T11:40:05.320Z,26.20
2022-07-26T11:45:11.346Z,26.00
2022-07-26T11:50:22.647Z,25.50
2022-07-26T11:55:31.235Z,25.20
2022-07-26T12:00:34.881Z,24.70
2022-07-26T12:05:39.646Z,24.30
2022-07-26T12:10:43.037Z,24.10
2022-07-26T12:15:48.234Z,24.20
2022-07-26T12:21:14.283Z,24.10
2022-07-26T12:26:24.724Z,25.30
2022-07-26T12:31:30.036Z,25.90
2022-07-26T12:36:35.440Z,25.00
2022-07-26T12:41:40.418Z,25.00
2022-07-26T12:46:44.980Z,25.50
2022-07-26T12:51:49.977Z,25.90
2022-07-26T12:56:53.449Z,27.60
2022-07-26T13:01:57.031Z,28.50
2022-07-26T13:07:01.907Z,26.60
2022-07-26T13:12:06.768Z,26.30
2022-07-26T13:17:11.257Z,28.90
2022-07-26T13:22:16.048Z,28.90
2022-07-26T13:27:19.389Z,28.80
2022-07-26T13:32:22.627Z,30.20
2022-07-26T13:37:27.253Z,31.30
2022-07-26T13:42:30.504Z,31.40
2022-07-26T13:47:33.757Z,30.30
2022-07-26T13:52:38.524Z,28.90
2022-07-26T13:57:53.253Z,29.10
2022-07-26T14:03:01.528Z,31.80
2022-07-26T14:08:06.636Z,32.20
2022-07-26T14:13:10.341Z,32.00
2022-07-26T14:18:14.026Z,32.70
2022-07-26T14:23:18.732Z,34.40
2022-07-26T14:28:22.088Z,32.60
2022-07-26T14:33:25.412Z,33.80
2022-07-26T14:38:30.354Z,33.10
2022-07-26T14:43:33.880Z,31.40
2022-07-26T14:48:53.571Z,29.30
2022-07-26T14:53:58.975Z,28.20
2022-07-26T14:59:02.276Z,30.40
2022-07-26T15:04:06.276Z,29.10
2022-07-26T15:09:11.290Z,30.30
2022-07-26T15:14:14.839Z,31.10
2022-07-26T15:19:22.187Z,29.60
2022-07-26T15:24:30.833Z,31.60
2022-07-26T15:29:35.957Z,33.30
2022-07-26T15:34:39.370Z,34.30
2022-07-26T15:39:44.148Z,30.40
2022-07-26T15:44:47.430Z,28.50
2022-07-26T15:49:50.923Z,28.80
2022-07-26T15:54:55.569Z,31.00
2022-07-26T16:00:02.397Z,29.40
2022-07-26T16:05:14.812Z,28.60
2022-07-26T16:10:19.994Z,29.00
2022-07-26T16:15:23.310Z,29.20
2022-07-26T16:20:26.713Z,29.50
2022-07-26T16:25:31.483Z,27.30
2022-07-26T16:30:36.906Z,28.00
2022-07-26T16:35:40.414Z,27.70
2022-07-26T16:40:45.169Z,27.60
2022-07-26T16:45:48.449Z,27.30
2022-07-26T16:50:51.767Z,27.10
2022-07-26T16:55:56.452Z,26.80
2022-07-26T17:00:59.888Z,26.90
2022-07-26T17:06:06.766Z,26.60
2022-07-26T17:11:11.792Z,29.10
2022-07-26T17:16:15.161Z,26.20
2022-07-26T17:21:25.084Z,26.10
2022-07-26T17:26:30.462Z,26.30
2022-07-26T17:31:33.747Z,26.10
2022-07-26T17:36:37.277Z,26.10
2022-07-26T17:41:43.228Z,25.80
2022-07-26T17:46:51.526Z,25.80
2022-07-26T17:51:57.349Z,25.60
2022-07-26T17:57:02.028Z,25.40
2022-07-26T18:02:05.452Z,25.20
2022-07-26T18:07:09.366Z,25.10
2022-07-26T18:12:14.013Z,24.90
2022-07-26T18:17:17.273Z,24.80
2022-07-26T18:22:20.536Z,24.70
2022-07-26T18:27:28.221Z,24.50
2022-07-26T18:32:31.758Z,24.30
2022-07-26T18:37:35.114Z,24.10
2022-07-26T18:42:39.950Z,23.80
2022-07-26T18:47:43.759Z,23.70
2022-07-26T18:52:47.772Z,23.60
2022-07-26T18:57:52.675Z,23.60
2022-07-26T19:02:57.428Z,23.50
2022-07-26T19:08:00.911Z,23.30
2022-07-26T19:13:05.686Z,23.20
2022-07-26T19:18:13.867Z,23.00
2022-07-26T19:23:17.194Z,22.70
2022-07-26T19:28:21.940Z,22.50
2022-07-26T19:33:25.550Z,22.30
2022-07-26T19:38:28.923Z,22.10
2022-07-26T19:43:33.791Z,21.90
2022-07-26T19:48:37.094Z,21.90
2022-07-26T19:53:40.417Z,21.90
2022-07-26T19:58:46.216Z,21.90
2022-07-26T20:03:49.731Z,21.80
2022-07-26T20:08:53.039Z,21.70
2022-07-26T20:13:57.704Z,21.60
2022-07-26T20:19:01.703Z,21.50
2022-07-26T20:24:05.168Z,21.50
2022-07-26T20:29:11.438Z,21.30
2022-07-26T20:34:15.049Z,21.20
2022-07-26T20:39:18.398Z,21.00
2022-07-26T20:44:27.638Z,20.90
2022-07-26T20:49:31.691Z,20.80
2022-07-26T20:54:35.080Z,20.90
2022-07-26T20:59:39.822Z,20.80
2022-07-26T21:04:43.107Z,20.90
2022-07-26T21:09:46.421Z,20.90
2022-07-26T21:14:51.546Z,20.90
2022-07-26T21:19:54.811Z,20.80
2022-07-26T21:24:58.276Z,20.70
2022-07-26T21:30:02.910Z,20.60
2022-07-26T21:35:07.100Z,20.50
2022-07-26T21:40:11.817Z,23.10
2022-07-26T21:45:16.534Z,20.40
2022-07-26T21:50:19.893Z,20.50
2022-07-26T21:55:23.609Z,20.50
2022-07-26T22:00:28.241Z,20.40
2022-07-26T22:05:38.945Z,20.40
2022-07-26T22:10:45.040Z,20.40
2022-07-26T22:15:49.887Z,20.40
2022-07-26T22:20:53.687Z,20.30
2022-07-26T22:25:57.560Z,20.90
2022-07-26T22:31:02.668Z,20.10
2022-07-26T22:36:06.624Z,20.00
2022-07-26T22:41:09.906Z,20.00
2022-07-26T22:46:14.591Z,15.90
2022-07-26T22:51:17.930Z,19.70
2022-07-26T22:56:21.210Z,19.50
2022-07-26T23:01:25.906Z,18.50
2022-07-26T23:06:32.196Z,19.30
2022-07-26T23:11:35.689Z,19.10
2022-07-26T23:16:40.654Z,18.90
2022-07-26T23:21:44.128Z,18.70
2022-07-26T23:26:47.375Z,18.70
2022-07-26T23:31:52.165Z,18.60
2022-07-26T23:36:55.512Z,18.50
2022-07-26T23:41:59.319Z,18.20
2022-07-26T23:47:04.001Z,18.10
2022-07-26T23:52:07.387Z,18.20
2022-07-26T23:57:10.709Z,18.20
